sensor_id;sensor_type;location;lat;lon;timestamp;temperature;humidity
41944;DHT22;27636;52.610;13.244;2023-03-23T00:01:09;9.80;99.90
41944;DHT22;27636;52.610;13.244;2023-03-23T00:06:21;9.60;99.90
41944;DHT22;27636;52.610;13.244;2023-03-23T00:11:26;9.60;99.90
41944;DHT22;27636;52.610;13.244;2023-03-23T00:16:32;9.70;99.90
41944;DHT22;27636;52.610;13.244;2023-03-23T00:21:37;9.70;99.90
41944;DHT22;27636;52.610;13.244;2023-03-23T00:26:42;9.60;99.90
41944;DHT22;27636;52.610;13.244;2023-03-23T00:31:46;9.50;99.90
41944;DHT22;27636;52.610;13.244;2023-03-23T00:36:50;9.60;99.90
41944;DHT22;27636;52.610;13.244;2023-03-23T00:41:55;9.60;99.90
41944;DHT22;27636;52.610;13.244;2023-03-23T00:47:03;9.80;99.90
41944;DHT22;27636;52.610;13.244;2023-03-23T00:52:07;9.90;99.90
41944;DHT22;27636;52.610;13.244;2023-03-23T00:57:11;9.90;99.90
41944;DHT22;27636;52.610;13.244;2023-03-23T01:02:13;9.90;99.90
41944;DHT22;27636;52.610;13.244;2023-03-23T01:07:15;9.80;99.90
41944;DHT22;27636;52.610;13.244;2023-03-23T01:12:21;9.60;99.90
41944;DHT22;27636;52.610;13.244;2023-03-23T01:17:26;9.50;99.90
41944;DHT22;27636;52.610;13.244;2023-03-23T01:22:28;9.60;99.90
41944;DHT22;27636;52.610;13.244;2023-03-23T01:27:32;9.70;99.90
41944;DHT22;27636;52.610;13.244;2023-03-23T01:32:34;9.70;99.90
41944;DHT22;27636;52.610;13.244;2023-03-23T01:37:37;9.80;99.90
41944;DHT22;27636;52.610;13.244;2023-03-23T01:42:42;9.80;99.90
41944;DHT22;27636;52.610;13.244;2023-03-23T01:47:49;9.90;99.90
41944;DHT22;27636;52.610;13.244;2023-03-23T01:52:55;9.90;99.90
41944;DHT22;27636;52.610;13.244;2023-03-23T01:58:00;10.10;99.90
41944;DHT22;27636;52.610;13.244;2023-03-23T02:03:03;10.30;99.90
41944;DHT22;27636;52.610;13.244;2023-03-23T02:08:10;10.40;99.90
41944;DHT22;27636;52.610;13.244;2023-03-23T02:13:16;10.50;99.90
41944;DHT22;27636;52.610;13.244;2023-03-23T02:18:34;10.70;99.90
41944;DHT22;27636;52.610;13.244;2023-03-23T02:29:45;11.10;99.90
41944;DHT22;27636;52.610;13.244;2023-03-23T02:34:54;11.20;99.90
41944;DHT22;27636;52.610;13.244;2023-03-23T02:40:02;11.40;99.90
41944;DHT22;27636;52.610;13.244;2023-03-23T02:45:19;11.60;99.90
41944;DHT22;27636;52.610;13.244;2023-03-23T02:50:25;11.60;99.90
41944;DHT22;27636;52.610;13.244;2023-03-23T02:55:29;11.40;99.90
41944;DHT22;27636;52.610;13.244;2023-03-23T03:00:36;11.10;99.90
41944;DHT22;27636;52.610;13.244;2023-03-23T03:05:47;11.00;99.90
41944;DHT22;27636;52.610;13.244;2023-03-23T03:10:57;11.10;99.90
41944;DHT22;27636;52.610;13.244;2023-03-23T03:16:07;11.10;99.90
41944;DHT22;27636;52.610;13.244;2023-03-23T03:21:16;10.90;99.90
41944;DHT22;27636;52.610;13.244;2023-03-23T03:26:23;10.90;99.90
41944;DHT22;27636;52.610;13.244;2023-03-23T03:31:36;10.80;99.90
41944;DHT22;27636;52.610;13.244;2023-03-23T03:36:42;10.60;99.90
41944;DHT22;27636;52.610;13.244;2023-03-23T03:41:46;10.30;99.90
41944;DHT22;27636;52.610;13.244;2023-03-23T03:46:49;10.10;99.90
41944;DHT22;27636;52.610;13.244;2023-03-23T03:51:53;10.00;99.90
41944;DHT22;27636;52.610;13.244;2023-03-23T03:57:00;10.00;99.90
41944;DHT22;27636;52.610;13.244;2023-03-23T04:02:21;9.90;99.90
41944;DHT22;27636;52.610;13.244;2023-03-23T04:07:27;9.90;99.90
41944;DHT22;27636;52.610;13.244;2023-03-23T04:12:32;9.90;99.90
41944;DHT22;27636;52.610;13.244;2023-03-23T04:17:53;9.80;99.90
41944;DHT22;27636;52.610;13.244;2023-03-23T04:22:58;9.70;99.90
41944;DHT22;27636;52.610;13.244;2023-03-23T04:28:03;9.70;99.90
41944;DHT22;27636;52.610;13.244;2023-03-23T04:33:11;9.70;99.90
41944;DHT22;27636;52.610;13.244;2023-03-23T04:38:23;9.80;99.90
41944;DHT22;27636;52.610;13.244;2023-03-23T04:43:34;9.80;99.90
41944;DHT22;27636;52.610;13.244;2023-03-23T04:49:16;9.70;99.90
41944;DHT22;27636;52.610;13.244;2023-03-23T04:54:32;9.70;99.90
41944;DHT22;27636;52.610;13.244;2023-03-23T04:59:37;9.70;99.90
41944;DHT22;27636;52.610;13.244;2023-03-23T05:04:50;9.80;99.90
41944;DHT22;27636;52.610;13.244;2023-03-23T05:10:00;9.70;99.90
41944;DHT22;27636;52.610;13.244;2023-03-23T05:15:07;9.80;99.90
41944;DHT22;27636;52.610;13.244;2023-03-23T05:20:12;9.90;99.90
41944;DHT22;27636;52.610;13.244;2023-03-23T05:25:19;9.90;99.90
41944;DHT22;27636;52.610;13.244;2023-03-23T05:30:26;9.80;99.90
41944;DHT22;27636;52.610;13.244;2023-03-23T05:35:31;9.80;99.90
41944;DHT22;27636;52.610;13.244;2023-03-23T05:40:35;9.80;99.90
41944;DHT22;27636;52.610;13.244;2023-03-23T05:45:46;9.80;99.90
41944;DHT22;27636;52.610;13.244;2023-03-23T05:50:48;9.70;99.90
41944;DHT22;27636;52.610;13.244;2023-03-23T05:55:52;9.70;99.90
41944;DHT22;27636;52.610;13.244;2023-03-23T06:01:17;9.80;99.90
41944;DHT22;27636;52.610;13.244;2023-03-23T06:06:20;9.90;99.90
41944;DHT22;27636;52.610;13.244;2023-03-23T06:11:31;10.00;99.90
41944;DHT22;27636;52.610;13.244;2023-03-23T06:16:53;10.00;99.90
41944;DHT22;27636;52.610;13.244;2023-03-23T06:21:56;10.00;99.90
41944;DHT22;27636;52.610;13.244;2023-03-23T06:27:10;10.00;99.90
41944;DHT22;27636;52.610;13.244;2023-03-23T06:32:13;10.00;99.90
41944;DHT22;27636;52.610;13.244;2023-03-23T06:37:18;10.10;99.90
41944;DHT22;27636;52.610;13.244;2023-03-23T06:42:56;10.20;99.90
41944;DHT22;27636;52.610;13.244;2023-03-23T06:48:18;10.20;99.90
41944;DHT22;27636;52.610;13.244;2023-03-23T06:53:20;10.30;99.90
41944;DHT22;27636;52.610;13.244;2023-03-23T06:58:27;10.50;99.90
41944;DHT22;27636;52.610;13.244;2023-03-23T07:03:30;10.40;99.90
41944;DHT22;27636;52.610;13.244;2023-03-23T07:08:35;10.50;99.90
41944;DHT22;27636;52.610;13.244;2023-03-23T07:13:39;10.60;99.90
41944;DHT22;27636;52.610;13.244;2023-03-23T07:18:41;10.70;99.90
41944;DHT22;27636;52.610;13.244;2023-03-23T07:23:44;10.60;99.90
41944;DHT22;27636;52.610;13.244;2023-03-23T07:28:56;10.70;99.90
41944;DHT22;27636;52.610;13.244;2023-03-23T07:34:05;10.60;99.90
41944;DHT22;27636;52.610;13.244;2023-03-23T07:39:27;10.70;99.90
41944;DHT22;27636;52.610;13.244;2023-03-23T07:44:34;10.80;99.90
41944;DHT22;27636;52.610;13.244;2023-03-23T07:49:42;10.80;99.90
41944;DHT22;27636;52.610;13.244;2023-03-23T07:54:53;11.10;99.90
41944;DHT22;27636;52.610;13.244;2023-03-23T08:00:13;11.40;99.90
41944;DHT22;27636;52.610;13.244;2023-03-23T08:05:39;11.40;99.90
41944;DHT22;27636;52.610;13.244;2023-03-23T08:10:57;11.40;99.90
41944;DHT22;27636;52.610;13.244;2023-03-23T08:16:20;11.50;99.90
41944;DHT22;27636;52.610;13.244;2023-03-23T08:21:42;11.40;99.90
41944;DHT22;27636;52.610;13.244;2023-03-23T08:26:54;11.60;99.90
41944;DHT22;27636;52.610;13.244;2023-03-23T08:32:12;11.50;99.90
41944;DHT22;27636;52.610;13.244;2023-03-23T08:37:18;11.60;99.90
41944;DHT22;27636;52.610;13.244;2023-03-23T08:42:30;11.80;99.90
41944;DHT22;27636;52.610;13.244;2023-03-23T08:47:46;12.10;99.90
41944;DHT22;27636;52.610;13.244;2023-03-23T08:53:11;12.40;99.90
41944;DHT22;27636;52.610;13.244;2023-03-23T08:58:38;12.40;99.90
41944;DHT22;27636;52.610;13.244;2023-03-23T09:04:01;12.40;99.90
41944;DHT22;27636;52.610;13.244;2023-03-23T09:09:24;12.40;99.90
41944;DHT22;27636;52.610;13.244;2023-03-23T09:14:27;12.20;99.90
41944;DHT22;27636;52.610;13.244;2023-03-23T09:19:32;12.30;99.90
41944;DHT22;27636;52.610;13.244;2023-03-23T09:24:35;12.70;99.90
41944;DHT22;27636;52.610;13.244;2023-03-23T09:29:38;13.10;99.90
41944;DHT22;27636;52.610;13.244;2023-03-23T09:34:41;14.20;99.90
41944;DHT22;27636;52.610;13.244;2023-03-23T09:39:44;14.80;99.90
41944;DHT22;27636;52.610;13.244;2023-03-23T09:44:55;15.10;99.90
41944;DHT22;27636;52.610;13.244;2023-03-23T09:50:08;15.10;99.90
41944;DHT22;27636;52.610;13.244;2023-03-23T09:55:13;15.50;99.90
41944;DHT22;27636;52.610;13.244;2023-03-23T10:00:20;15.70;99.90
41944;DHT22;27636;52.610;13.244;2023-03-23T10:05:33;15.00;99.90
41944;DHT22;27636;52.610;13.244;2023-03-23T10:10:46;14.90;99.90
41944;DHT22;27636;52.610;13.244;2023-03-23T10:15:49;14.40;99.90
41944;DHT22;27636;52.610;13.244;2023-03-23T10:20:55;14.40;99.90
41944;DHT22;27636;52.610;13.244;2023-03-23T10:26:04;14.60;99.90
41944;DHT22;27636;52.610;13.244;2023-03-23T10:31:13;15.10;99.90
41944;DHT22;27636;52.610;13.244;2023-03-23T10:36:21;15.50;99.90
41944;DHT22;27636;52.610;13.244;2023-03-23T10:41:26;15.80;99.90
41944;DHT22;27636;52.610;13.244;2023-03-23T10:46:33;15.90;99.90
41944;DHT22;27636;52.610;13.244;2023-03-23T10:51:43;16.00;99.90
41944;DHT22;27636;52.610;13.244;2023-03-23T10:56:46;16.20;99.90
41944;DHT22;27636;52.610;13.244;2023-03-23T11:01:51;16.00;99.90
41944;DHT22;27636;52.610;13.244;2023-03-23T11:07:00;16.00;99.90
41944;DHT22;27636;52.610;13.244;2023-03-23T11:12:15;15.70;99.90
41944;DHT22;27636;52.610;13.244;2023-03-23T11:17:22;15.90;99.90
41944;DHT22;27636;52.610;13.244;2023-03-23T11:22:29;15.70;99.90
41944;DHT22;27636;52.610;13.244;2023-03-23T11:27:34;15.80;99.90
41944;DHT22;27636;52.610;13.244;2023-03-23T11:32:37;15.80;99.90
41944;DHT22;27636;52.610;13.244;2023-03-23T11:37:43;16.00;99.90
41944;DHT22;27636;52.610;13.244;2023-03-23T11:42:48;16.60;99.90
41944;DHT22;27636;52.610;13.244;2023-03-23T11:47:59;16.90;99.90
41944;DHT22;27636;52.610;13.244;2023-03-23T11:53:15;16.90;99.90
41944;DHT22;27636;52.610;13.244;2023-03-23T11:58:22;16.50;99.90
41944;DHT22;27636;52.610;13.244;2023-03-23T12:03:35;16.40;99.90
41944;DHT22;27636;52.610;13.244;2023-03-23T12:08:58;16.00;99.90
41944;DHT22;27636;52.610;13.244;2023-03-23T12:14:11;15.90;99.90
41944;DHT22;27636;52.610;13.244;2023-03-23T12:19:21;15.90;99.90
41944;DHT22;27636;52.610;13.244;2023-03-23T12:24:38;16.00;99.90
41944;DHT22;27636;52.610;13.244;2023-03-23T12:29:58;16.20;99.90
41944;DHT22;27636;52.610;13.244;2023-03-23T12:35:15;16.30;99.90
41944;DHT22;27636;52.610;13.244;2023-03-23T12:40:36;16.00;99.90
41944;DHT22;27636;52.610;13.244;2023-03-23T12:46:00;16.10;99.90
41944;DHT22;27636;52.610;13.244;2023-03-23T12:51:16;16.00;99.90
41944;DHT22;27636;52.610;13.244;2023-03-23T12:56:23;16.60;99.90
41944;DHT22;27636;52.610;13.244;2023-03-23T13:01:30;17.30;99.90
41944;DHT22;27636;52.610;13.244;2023-03-23T13:06:37;18.10;97.70
41944;DHT22;27636;52.610;13.244;2023-03-23T13:11:42;19.20;94.60
41944;DHT22;27636;52.610;13.244;2023-03-23T13:16:54;20.30;93.20
41944;DHT22;27636;52.610;13.244;2023-03-23T13:22:04;20.60;90.20
41944;DHT22;27636;52.610;13.244;2023-03-23T13:27:10;20.60;85.60
41944;DHT22;27636;52.610;13.244;2023-03-23T13:32:16;20.00;90.00
41944;DHT22;27636;52.610;13.244;2023-03-23T13:37:21;19.90;87.70
41944;DHT22;27636;52.610;13.244;2023-03-23T13:42:27;19.50;88.40
41944;DHT22;27636;52.610;13.244;2023-03-23T13:47:37;19.90;87.10
41944;DHT22;27636;52.610;13.244;2023-03-23T13:52:50;20.10;86.60
41944;DHT22;27636;52.610;13.244;2023-03-23T13:57:56;19.80;84.50
41944;DHT22;27636;52.610;13.244;2023-03-23T14:03:01;18.80;86.50
41944;DHT22;27636;52.610;13.244;2023-03-23T14:08:12;18.40;87.70
41944;DHT22;27636;52.610;13.244;2023-03-23T14:13:20;18.70;88.50
41944;DHT22;27636;52.610;13.244;2023-03-23T14:18:25;17.90;88.20
41944;DHT22;27636;52.610;13.244;2023-03-23T14:23:31;17.30;90.30
41944;DHT22;27636;52.610;13.244;2023-03-23T14:28:39;16.90;90.50
41944;DHT22;27636;52.610;13.244;2023-03-23T14:33:42;16.80;91.60
41944;DHT22;27636;52.610;13.244;2023-03-23T14:38:44;16.60;91.90
41944;DHT22;27636;52.610;13.244;2023-03-23T14:43:48;16.60;91.70
41944;DHT22;27636;52.610;13.244;2023-03-23T14:48:50;17.10;91.60
41944;DHT22;27636;52.610;13.244;2023-03-23T14:53:53;18.30;86.60
41944;DHT22;27636;52.610;13.244;2023-03-23T14:59:03;17.60;88.60
41944;DHT22;27636;52.610;13.244;2023-03-23T15:04:09;17.60;90.90
41944;DHT22;27636;52.610;13.244;2023-03-23T15:09:16;18.30;88.30
41944;DHT22;27636;52.610;13.244;2023-03-23T15:14:23;19.20;85.50
41944;DHT22;27636;52.610;13.244;2023-03-23T15:19:28;18.90;81.80
41944;DHT22;27636;52.610;13.244;2023-03-23T15:24:37;18.30;83.50
41944;DHT22;27636;52.610;13.244;2023-03-23T15:29:48;18.00;84.50
41944;DHT22;27636;52.610;13.244;2023-03-23T15:34:51;18.30;85.90
41944;DHT22;27636;52.610;13.244;2023-03-23T15:39:54;18.30;84.40
41944;DHT22;27636;52.610;13.244;2023-03-23T15:45:16;18.10;83.90
41944;DHT22;27636;52.610;13.244;2023-03-23T15:50:33;17.20;86.70
41944;DHT22;27636;52.610;13.244;2023-03-23T15:55:38;16.90;87.30
41944;DHT22;27636;52.610;13.244;2023-03-23T16:00:42;16.60;90.20
41944;DHT22;27636;52.610;13.244;2023-03-23T16:05:46;16.30;89.60
41944;DHT22;27636;52.610;13.244;2023-03-23T16:10:50;16.00;91.30
41944;DHT22;27636;52.610;13.244;2023-03-23T16:15:55;15.90;92.70
41944;DHT22;27636;52.610;13.244;2023-03-23T16:20:58;15.30;98.00
41944;DHT22;27636;52.610;13.244;2023-03-23T16:26:02;14.80;99.90
41944;DHT22;27636;52.610;13.244;2023-03-23T16:31:07;14.50;99.90
41944;DHT22;27636;52.610;13.244;2023-03-23T16:36:11;14.30;99.90
41944;DHT22;27636;52.610;13.244;2023-03-23T16:41:16;14.10;99.90
41944;DHT22;27636;52.610;13.244;2023-03-23T16:46:20;13.70;99.90
41944;DHT22;27636;52.610;13.244;2023-03-23T16:51:24;13.50;99.90
41944;DHT22;27636;52.610;13.244;2023-03-23T16:56:28;13.40;99.90
41944;DHT22;27636;52.610;13.244;2023-03-23T17:01:33;13.10;99.90
41944;DHT22;27636;52.610;13.244;2023-03-23T17:06:36;13.00;99.90
41944;DHT22;27636;52.610;13.244;2023-03-23T17:11:41;12.70;99.90
41944;DHT22;27636;52.610;13.244;2023-03-23T17:16:45;12.70;99.90
41944;DHT22;27636;52.610;13.244;2023-03-23T17:21:49;12.40;99.90
41944;DHT22;27636;52.610;13.244;2023-03-23T17:26:54;12.30;99.90
41944;DHT22;27636;52.610;13.244;2023-03-23T17:31:58;12.40;99.90
41944;DHT22;27636;52.610;13.244;2023-03-23T17:37:02;12.50;99.90
41944;DHT22;27636;52.610;13.244;2023-03-23T17:42:06;12.50;99.90
41944;DHT22;27636;52.610;13.244;2023-03-23T17:47:11;12.30;99.90
41944;DHT22;27636;52.610;13.244;2023-03-23T17:52:14;11.90;99.90
41944;DHT22;27636;52.610;13.244;2023-03-23T17:57:18;11.70;99.90
41944;DHT22;27636;52.610;13.244;2023-03-23T18:02:23;11.60;99.90
41944;DHT22;27636;52.610;13.244;2023-03-23T18:07:27;11.70;99.90
41944;DHT22;27636;52.610;13.244;2023-03-23T18:12:30;11.60;99.90
41944;DHT22;27636;52.610;13.244;2023-03-23T18:17:35;11.50;99.90
41944;DHT22;27636;52.610;13.244;2023-03-23T18:22:39;11.40;99.90
41944;DHT22;27636;52.610;13.244;2023-03-23T18:27:43;11.40;99.90
41944;DHT22;27636;52.610;13.244;2023-03-23T18:32:47;11.50;99.90
41944;DHT22;27636;52.610;13.244;2023-03-23T18:37:51;11.40;99.90
41944;DHT22;27636;52.610;13.244;2023-03-23T18:42:54;11.50;99.90
41944;DHT22;27636;52.610;13.244;2023-03-23T18:47:59;11.50;99.90
41944;DHT22;27636;52.610;13.244;2023-03-23T18:53:02;11.50;99.90
41944;DHT22;27636;52.610;13.244;2023-03-23T18:58:06;11.60;99.90
41944;DHT22;27636;52.610;13.244;2023-03-23T19:03:11;11.50;99.90
41944;DHT22;27636;52.610;13.244;2023-03-23T19:08:15;11.50;99.90
41944;DHT22;27636;52.610;13.244;2023-03-23T19:13:20;11.60;99.90
41944;DHT22;27636;52.610;13.244;2023-03-23T19:18:25;11.70;99.90
41944;DHT22;27636;52.610;13.244;2023-03-23T19:23:28;11.60;99.90
41944;DHT22;27636;52.610;13.244;2023-03-23T19:28:32;11.50;99.90
41944;DHT22;27636;52.610;13.244;2023-03-23T19:33:56;11.50;99.90
41944;DHT22;27636;52.610;13.244;2023-03-23T19:39:01;11.40;99.90
41944;DHT22;27636;52.610;13.244;2023-03-23T19:44:07;11.40;99.90
41944;DHT22;27636;52.610;13.244;2023-03-23T19:49:12;11.40;99.90
41944;DHT22;27636;52.610;13.244;2023-03-23T19:54:16;11.50;99.90
41944;DHT22;27636;52.610;13.244;2023-03-23T19:59:20;11.60;99.90
41944;DHT22;27636;52.610;13.244;2023-03-23T20:04:25;11.60;99.90
41944;DHT22;27636;52.610;13.244;2023-03-23T20:09:29;11.60;99.90
41944;DHT22;27636;52.610;13.244;2023-03-23T20:14:33;11.50;99.90
41944;DHT22;27636;52.610;13.244;2023-03-23T20:19:38;11.40;99.90
41944;DHT22;27636;52.610;13.244;2023-03-23T20:24:42;11.40;99.90
41944;DHT22;27636;52.610;13.244;2023-03-23T20:29:49;11.50;99.90
41944;DHT22;27636;52.610;13.244;2023-03-23T20:34:56;11.30;99.90
41944;DHT22;27636;52.610;13.244;2023-03-23T20:40:00;11.30;99.90
41944;DHT22;27636;52.610;13.244;2023-03-23T20:45:04;11.30;99.90
41944;DHT22;27636;52.610;13.244;2023-03-23T20:50:10;11.20;99.90
41944;DHT22;27636;52.610;13.244;2023-03-23T20:55:14;11.20;99.90
41944;DHT22;27636;52.610;13.244;2023-03-23T21:00:17;11.10;99.90
41944;DHT22;27636;52.610;13.244;2023-03-23T21:05:22;11.00;99.90
41944;DHT22;27636;52.610;13.244;2023-03-23T21:10:26;10.90;99.90
41944;DHT22;27636;52.610;13.244;2023-03-23T21:15:31;10.90;99.90
41944;DHT22;27636;52.610;13.244;2023-03-23T21:20:37;10.80;99.90
41944;DHT22;27636;52.610;13.244;2023-03-23T21:25:41;10.80;99.90
41944;DHT22;27636;52.610;13.244;2023-03-23T21:30:47;10.70;99.90
41944;DHT22;27636;52.610;13.244;2023-03-23T21:35:52;10.70;99.90
41944;DHT22;27636;52.610;13.244;2023-03-23T21:40:57;10.60;99.90
41944;DHT22;27636;52.610;13.244;2023-03-23T21:46:03;10.30;99.90
41944;DHT22;27636;52.610;13.244;2023-03-23T21:51:12;10.10;99.90
41944;DHT22;27636;52.610;13.244;2023-03-23T21:56:16;9.80;99.90
41944;DHT22;27636;52.610;13.244;2023-03-23T22:01:21;9.70;99.90
41944;DHT22;27636;52.610;13.244;2023-03-23T22:06:26;9.60;99.90
41944;DHT22;27636;52.610;13.244;2023-03-23T22:11:30;9.50;99.90
41944;DHT22;27636;52.610;13.244;2023-03-23T22:16:34;9.60;99.90
41944;DHT22;27636;52.610;13.244;2023-03-23T22:21:39;9.60;99.90
41944;DHT22;27636;52.610;13.244;2023-03-23T22:26:43;9.60;99.90
41944;DHT22;27636;52.610;13.244;2023-03-23T22:31:46;9.60;99.90
41944;DHT22;27636;52.610;13.244;2023-03-23T22:36:51;9.60;99.90
41944;DHT22;27636;52.610;13.244;2023-03-23T22:41:55;9.60;99.90
41944;DHT22;27636;52.610;13.244;2023-03-23T22:46:58;9.50;99.90
41944;DHT22;27636;52.610;13.244;2023-03-23T22:52:03;9.60;99.90
41944;DHT22;27636;52.610;13.244;2023-03-23T22:57:06;9.50;99.90
41944;DHT22;27636;52.610;13.244;2023-03-23T23:02:10;9.40;99.90
41944;DHT22;27636;52.610;13.244;2023-03-23T23:07:16;9.30;99.90
41944;DHT22;27636;52.610;13.244;2023-03-23T23:12:19;9.20;99.90
41944;DHT22;27636;52.610;13.244;2023-03-23T23:17:24;9.30;99.90
41944;DHT22;27636;52.610;13.244;2023-03-23T23:22:30;9.30;99.90
41944;DHT22;27636;52.610;13.244;2023-03-23T23:27:32;9.50;99.90
41944;DHT22;27636;52.610;13.244;2023-03-23T23:32:36;9.50;99.90
41944;DHT22;27636;52.610;13.244;2023-03-23T23:37:41;9.30;99.90
41944;DHT22;27636;52.610;13.244;2023-03-23T23:42:47;9.30;99.90
41944;DHT22;27636;52.610;13.244;2023-03-23T23:47:50;9.20;99.90
41944;DHT22;27636;52.610;13.244;2023-03-23T23:52:55;9.20;99.90
41944;DHT22;27636;52.610;13.244;2023-03-23T23:58:00;9.30;99.90
